Архив погоды в Партизанске

Метеограмма Партизанск
Четверг, 22 Августа
Время местн. Темп Ветер Видим Явления Облачность нижн/средн/верх Атм. давл. Влжн Точка росы ВНГО R Сост. почвы Tg s
Напр Скр Прв ур.ст ур.м изм
04:00 +16.8° штиль 0 - 0.5 км слабый ливневый дождь неба не видно 739 757 -0.6 94% +15.8° - - - - -
01:00 +16.8° штиль 0 - 2 км дымка {дождь} облачно 740 758 -0.2 94% +15.8° 600 м - - - -
Среда, 21 Августа
Время местн. Темп Ветер Видим Явления Облачность нижн/средн/верх Атм. давл. Влжн Точка росы ВНГО R Сост. почвы Tg s
Напр Скр Прв ур.ст ур.м изм
22:00 +16.6° Ю-З 1 - 4 км умеренный непрерывный дождь облачно 740 758 +0.4 93% +15.5° 600 м - - - -
19:00 +17.3° Ю,Ю-З 5 10 более 50 км - облачно 739 757 -0.4 88% +15.3° 1 км 0 - - -
16:00 +19.7° Ю,Ю-З 6 10 50 км - облачно 740 758 -0.7 77% +15.5° 1 км - - - -
13:00 +19.4° В 1 - 50 км - облачно 740 758 -1.7 75% +14.9° 600 м - - - -
10:00 +16.1° Ю,Ю-З 4 - 50 км морось или снежные зерна {морось, туман} облачно 742 760 +0.5 94% +15.1° 300 м - - - -
07:00 +15.9° Ю 4 - 4 км дымка {туман} облачно 742 760 +0.4 94% +14.9° 300 м 0 Влажная (без луж) - -
04:00 +16.4° Ю 2 - 0.5 км туман усиливается неба не видно 741 759 -0.7 94% +15.4° - - - - -
01:00 +16.7° Ю 2 - 4 км дымка облачно 742 760 -0.2 94% +15.7° 600 м - - - -
Вторник, 20 Августа
Время местн. Темп Ветер Видим Явления Облачность нижн/средн/верх Атм. давл. Влжн Точка росы ВНГО R Сост. почвы Tg s
Напр Скр Прв ур.ст ур.м изм
22:00 +16.8° Ю 3 - 4 км дымка облачно 742 760 +1.1 93% +15.7° 600 м - - - -
19:00 +20.1° Ю 3 - 50 км - облачно 741 759 +0.2 83% +17.1° 1.5 км 0 - - -
16:00 +24.3° Ю 4 - более 50 км - переменная облачность 741 758 -1.4 69% +18.3° 1.5 км - - - -
13:00 +23° С,С-В 2 - 50 км - преимущественно облачно 742 760 -0.2 63% +15.5° 1 км - - - -
10:00 +19.9° С 2 - 50 км облака рассеиваются {туман} преимущественно облачно 743 760 +0.1 73% +15° 1 км - - - -
07:00 +16.9° штиль 0 - 500 м туман усиливается, небо видно неба не видно 743 761 -0.3 94% +15.9° - 0 Влажная (без луж) +18° -
04:00 +16.9° штиль 0 - 4 км местами туман облачно 743 761 0 93% +15.8° 600 м - - - -
01:00 +16.8° Ю 1 - 500 м туман усиливается, небо видно неба не видно 743 761 -0.1 93% +15.6° - - - - -
Понедельник, 19 Августа
Время местн. Темп Ветер Видим Явления Облачность нижн/средн/верх Атм. давл. Влжн Точка росы ВНГО R Сост. почвы Tg s
Напр Скр Прв ур.ст ур.м изм
22:00 +17.1° Ю 2 - 4 км туман на расстоянии облачно 743 761 +1.4 93% +15.9° 600 м - - - -
19:00 +20.7° Ю 3 - 50 км - преимущественно облачно 741 759 +0.2 81% +17.3° 1.5 км 0 - - -
16:00 +23.6° Ю 5 - более 50 км - преимущественно облачно 741 759 -0.6 70% +17.7° 1.5 км - - - -
13:00 +22.7° Ю 3 - 50 км - облачно с прояснениями 742 760 +0.1 75% +18° 1.5 км - - - -
10:00 +19.4° Ю 2 - 4 км местами туман преимущественно облачно 742 760 +0.7 89% +17.5° 600 м - - - -
07:00 +17.8° Ю,Ю-В 1 - 4 км местами туман преимущественно облачно 741 759 +0.6 93% +16.7° 300 м 0 Влажная (без луж) - -
04:00 +18° штиль 0 - 50 км - облачно 741 759 +0.7 93% +16.9° 1 км - - - -
01:00 +18.7° Ю,Ю-З 1 - 50 км - преимущественно облачно 740 758 +1.1 91% +17.2° 1 км - - - -